Flight Track Log - Related Links

Times and Time Zones

All times are in EDT time to prevent confusion due to time zone crossing. See the SIL4007 flight status page for this flight to view local times or setup timezone preferences in your user account.

Time Position Orientation Groundspeed Altitude Reporting Facility
EDT Latitude Longitude Course Direction KTS MPH feet Rate Location/Type
Fri 11:23:15 AM 24.6536 -81.6560 265° West  Level FlightAware Approximate
Fri 11:24:15 AM 24.7085 -81.6320 214° Southwest  Level FlightAware Approximate
Fri 11:25:15 AM 24.7513 -81.5853 219° Southwest  Level FlightAware Approximate
Fri 11:26:15 AM 24.8074 -81.5617 213° Southwest  Level FlightAware Approximate
Fri 11:27:15 AM 24.8496 -81.5143 216° Southwest  Level FlightAware Approximate
Fri 11:28:13 AM 24.6522 -81.6731 33° Northeast 175 201 8,400  Level Miami Center
Fri 11:29:13 AM 24.6886 -81.6472 33° Northeast 165 190 9,300 850 Climbing Miami Center
Fri 11:30:13 AM 24.7247 -81.6211 34° Northeast 160 184 10,100 800 Climbing Miami Center
Fri 11:31:13 AM 24.7633 -81.5928 32° Northeast 160 184 10,900 400 Climbing Miami Center
Fri 11:32:13 AM 24.8081 -81.5625 34° Northeast 168 193 10,900  Level Miami Center
Fri 11:33:13 AM 24.8617 -81.5233 33° Northeast 197 227 10,900 50 Level Miami Center
Fri 11:34:13 AM 24.9192 -81.4819 31° Northeast 225 259 11,000 50 Climbing Miami Center
Fri 11:35:13 AM 24.9769 -81.4431 33° Northeast 240 276 11,000  Level Miami Center
Fri 11:36:13 AM 25.0367 -81.3994 36° Northeast 246 283 11,000  Level Miami Center
Fri 11:37:13 AM 25.0944 -81.3533 40° Northeast 246 283 11,000 -450 Level Miami Center
Fri 11:38:13 AM 25.1461 -81.3047 41° Northeast 246 283 10,100 -950 Descending Miami Center
Fri 11:39:13 AM 25.2019 -81.2517 42° Northeast 246 283 9,100 -550 Descending Miami Center
Fri 11:40:13 AM 25.2514 -81.2031 41° Northeast 239 275 9,000 -50 Descending Miami Center
Fri 11:41:13 AM 25.3031 -81.1542 41° Northeast 239 275 9,000  Level Miami Center
Fri 11:42:13 AM 25.3544 -81.1056 42° Northeast 239 275 9,000  Level Miami Center
Fri 11:43:13 AM 25.4061 -81.0544 39° Northeast 239 275 9,000  Level Miami Center
Fri 11:44:13 AM 25.4597 -81.0058 42° Northeast 239 275 9,000  Level Miami Center
Fri 11:45:13 AM 25.5114 -80.9544 41° Northeast 239 275 9,000 -450 Level Miami Center
Fri 11:46:13 AM 25.5650 -80.9033 22° Northeast 239 275 8,100 -1,000 Descending Miami Center
Fri 11:47:13 AM 25.6283 -80.8756 22° Northeast 239 275 7,000 -1,100 Descending Miami Center
Fri 11:48:13 AM 25.6917 -80.8478 25° Northeast 239 275 5,900 -1,050 Descending Miami Center
Fri 11:49:13 AM 25.7533 -80.8153 25° Northeast 239 275 4,900 -1,050 Descending Miami Center
Fri 11:50:13 AM 25.8125 -80.7847 24° Northeast 239 275 3,800 -950 Descending Miami Center
Fri 11:51:13 AM 25.8739 -80.7544 22° Northeast 239 275 3,000 -400 Descending Miami Center
Fri 11:52:13 AM 25.9353 -80.7264 19° North 239 275 3,000 67 Level Miami Center
Fri 11:52:43 AM 25.9628 -80.7158 41° Northeast 243 280 3,100  Climbing Miami Center
Fri 11:53:13 AM 25.9928 -80.6867 50° Northeast 239 275 3,000 -98 Descending Miami Center
Fri 11:53:44 AM 26.0100 -80.6642 57° Northeast 228 262 3,000  Level Miami Center
Fri 11:54:45 AM 26.0450 -80.6053 58° Northeast 214 246 3,000  Level Miami Center
Fri 11:55:46 AM 26.0733 -80.5553 84° East 190 219 3,000  Level Miami Center
Fri 11:56:41 AM 26.0789 -80.5000 96° East 189 217 3,000  Level Miami Center
Fri 11:57:36 AM 26.0739 -80.4464 88° East 192 221 3,000 -47 Level Miami Center
Fri 11:58:49 AM 26.0756 -80.3794 88° East 172 198 2,900 -47 Descending Miami Center
Fri 11:59:44 AM 26.0767 -80.3333 93° East 168 193 2,900 -466 Level Miami Center
Fri 12:00:45 PM 26.0739 -80.2778 89° East 169 194 2,000 -836 Descending Miami Center
Fri 12:01:46 PM 26.0747 -80.2339 92° East 133 153 1,200 -689 Descending Miami Center
Fri 12:02:47 PM 26.0736 -80.1967 92° East 123 142 600 -590 Descending Miami Center

Login

Don't have an account? Register now (free) for customized features, flight alerts, and more!